Orbital elements of COSMOS 1285 DEB
| Launched | 3 August 1981 |
| Flight ended | – |
| Launch site | Plesetsk Missile and Space Complex, Russia |
| Owner | Commonwealth of Independent States (former USSR) |
| NORAD ID | 27801 |
| Date fetched |
Epoch osculation |
Inc. [°] |
Ecc. | RA asc node [hr] |
Arg Peri. [°] |
Mean anom [°] |
Mean motion [rev/day] |
Abs. mag |
| Date fetched |
Epoch osculation |
Inc. [°] |
Ecc. | RA asc node [hr] |
Arg Peri. [°] |
Mean anom [°] |
Mean motion [rev/day] |
Abs. mag |
| 2026 May 05 17:57 | 2026 May 03 00:43:41 | 64.0248 | 0.72418 | 2.9274 | 38.1020 | 355.3448 | 1.97987 | – |
| 2026 May 04 17:57 | 2026 Apr 28 23:44:55 | 64.0272 | 0.72414 | 2.9621 | 38.1117 | 355.3448 | 1.97987 | – |
| 2026 May 03 17:57 | 2026 Apr 28 23:44:55 | 64.0272 | 0.72414 | 2.9621 | 38.1117 | 355.3448 | 1.97987 | – |
| 2026 May 02 17:57 | 2026 Apr 28 23:44:55 | 64.0272 | 0.72414 | 2.9621 | 38.1117 | 355.3448 | 1.97987 | – |
| 2026 May 01 17:56 | 2026 Apr 28 23:44:55 | 64.0272 | 0.72414 | 2.9621 | 38.1117 | 355.3448 | 1.97987 | – |
| 2026 Apr 30 17:56 | 2026 Apr 28 23:44:55 | 64.0272 | 0.72414 | 2.9621 | 38.1117 | 355.3448 | 1.97987 | – |
| 2026 Apr 29 17:57 | 2026 Apr 21 22:01:48 | 64.0311 | 0.72406 | 3.0229 | 38.1295 | 355.3448 | 1.97987 | – |
| 2026 Apr 28 17:56 | 2026 Apr 21 22:01:48 | 64.0311 | 0.72406 | 3.0229 | 38.1295 | 355.3448 | 1.97987 | – |
| 2026 Apr 27 17:58 | 2026 Apr 21 22:01:48 | 64.0311 | 0.72406 | 3.0229 | 38.1295 | 355.3448 | 1.97987 | – |
| 2026 Apr 26 17:58 | 2026 Apr 21 22:01:48 | 64.0311 | 0.72406 | 3.0229 | 38.1295 | 355.3448 | 1.97987 | – |
| 2026 Apr 25 17:58 | 2026 Apr 21 22:01:48 | 64.0311 | 0.72406 | 3.0229 | 38.1295 | 355.3448 | 1.97987 | – |
| 2026 Apr 24 17:59 | 2026 Apr 21 22:01:48 | 64.0311 | 0.72406 | 3.0229 | 38.1295 | 355.3448 | 1.97987 | – |
| 2026 Apr 23 17:57 | 2026 Apr 19 09:24:39 | 64.0328 | 0.72403 | 3.0447 | 38.1356 | 355.3448 | 1.97987 | – |
| 2026 Apr 22 17:57 | 2026 Apr 19 09:24:39 | 64.0328 | 0.72403 | 3.0447 | 38.1356 | 355.3448 | 1.97987 | – |
| 2026 Apr 21 17:57 | 2026 Apr 19 09:24:39 | 64.0328 | 0.72403 | 3.0447 | 38.1356 | 355.3448 | 1.97987 | – |
| 2026 Apr 20 17:57 | 2026 Apr 19 09:24:39 | 64.0328 | 0.72403 | 3.0447 | 38.1356 | 355.3448 | 1.97987 | – |
| 2026 Apr 19 17:58 | 2026 Apr 19 09:24:39 | 64.0328 | 0.72403 | 3.0447 | 38.1356 | 355.3448 | 1.97987 | – |
| 2026 Apr 18 17:56 | 2026 Apr 12 19:48:05 | 64.0392 | 0.72394 | 3.1012 | 38.1504 | 355.3448 | 1.97987 | – |
| 2026 Apr 16 17:57 | 2026 Apr 12 19:48:05 | 64.0392 | 0.72394 | 3.1012 | 38.1504 | 355.3448 | 1.97987 | – |
| 2026 Apr 14 17:57 | 2026 Apr 12 19:48:05 | 64.0392 | 0.72394 | 3.1012 | 38.1504 | 355.3448 | 1.97987 | – |
| 2026 Apr 13 17:57 | 2026 Apr 12 19:48:05 | 64.0392 | 0.72394 | 3.1012 | 38.1504 | 355.3448 | 1.97987 | – |
| 2026 Apr 12 17:57 | 2026 Apr 05 05:57:01 | 64.0499 | 0.72380 | 3.1669 | 38.1746 | 355.3448 | 1.97987 | – |
| 2026 Apr 11 17:57 | 2026 Apr 05 05:57:01 | 64.0499 | 0.72380 | 3.1669 | 38.1746 | 355.3448 | 1.97987 | – |
| 2026 Apr 10 17:58 | 2026 Apr 05 05:57:01 | 64.0499 | 0.72380 | 3.1669 | 38.1746 | 355.3448 | 1.97987 | – |
| 2026 Apr 09 18:01 | 2026 Apr 05 05:57:01 | 64.0499 | 0.72380 | 3.1669 | 38.1746 | 355.3448 | 1.97987 | – |
| 2026 Apr 08 17:57 | 2026 Apr 05 05:57:01 | 64.0499 | 0.72380 | 3.1669 | 38.1746 | 355.3448 | 1.97987 | – |